PWSweather.com
Personal Weather Stations
Station Observations
WATERF01
WaterfordIE

WaterfordIE

Lat: 52.2412507, Lon: -7.1414691

Elevation: 65

Station Type: Davis Vantage Vue

Latest ConditionsUpdated 2:00:04 PM GMT Monday, Jun 26, 2017
Currently Today's Max Today's Min Today's Average
Temperature 56.9°F13.8°C 56.9°F13.8°C 56.9°F13.8°C 56.9°F13.8°C
Dew Point 48.7°F9.3°C 48.7°F9.3°C 48.7°F9.3°C 48.7°F9.3°C
Winds 6.9 mph NNW11.1 kmh NNW 9.2 mph NNW14.8 kmh NNW - 4.2 mph 6.8 kmh
Wind Gusts 11.5 mph18.5 kmh 13.8 mph22.2 kmh - -
Humidity 74% 74% 74% 74%
Pressure 29.98 in1015.2 mb 29.98 in1015.2 mb 29.98 in1015.2 mb -
Hour Temp Dew Point Humidity Winds Wind Gusts Pressure Precip Precip Rate Daily Precip Total
02:00 PM 56.9°F13.8°C 48.7°F9.3°C 74% 6.9 mph NNW11.1 kmh NNW 11.5 mph18.5 kmh 29.98 in1015.2 mb - 0.00 in0.0 mm 0.00 in0.0 mm
01:50 PM 56.9°F13.8°C 48.7°F9.3°C 74% 6.9 mph NNW11.1 kmh NNW 9.2 mph14.8 kmh 29.98 in1015.2 mb - 0.00 in0.0 mm 0.00 in0.0 mm
01:40 PM 56.9°F13.8°C 48.7°F9.3°C 74% 6.9 mph NNW11.1 kmh NNW 9.2 mph14.8 kmh 29.98 in1015.2 mb - 0.00 in0.0 mm 0.00 in0.0 mm
01:30 PM 56.9°F13.8°C 48.7°F9.3°C 74% 8.1 mph NNW13.0 kmh NNW 11.5 mph18.5 kmh 29.98 in1015.2 mb - 0.00 in0.0 mm 0.00 in0.0 mm
01:20 PM 56.9°F13.8°C 48.7°F9.3°C 74% 8.1 mph NNW13.0 kmh NNW 11.5 mph18.5 kmh 29.98 in1015.2 mb - 0.00 in0.0 mm 0.00 in0.0 mm
01:10 PM 56.9°F13.8°C 48.7°F9.3°C 74% 6.9 mph NNW11.1 kmh NNW 11.5 mph18.5 kmh 29.98 in1015.2 mb - 0.00 in0.0 mm 0.00 in0.0 mm
01:00 PM 56.9°F13.8°C 48.7°F9.3°C 74% 8.1 mph NNW13.0 kmh NNW 12.7 mph20.4 kmh 29.98 in1015.2 mb - 0.00 in0.0 mm 0.00 in0.0 mm
12:50 PM 56.9°F13.8°C 48.7°F9.3°C 74% 8.1 mph NNW13.0 kmh NNW 11.5 mph18.5 kmh 29.98 in1015.2 mb - 0.00 in0.0 mm 0.00 in0.0 mm
12:40 PM 56.9°F13.8°C 48.7°F9.3°C 74% 6.9 mph NNW11.1 kmh NNW 9.2 mph14.8 kmh 29.98 in1015.2 mb - 0.00 in0.0 mm 0.00 in0.0 mm
12:30 PM 56.9°F13.8°C 48.7°F9.3°C 74% 4.6 mph NNW7.4 kmh NNW 8.1 mph13.0 kmh 29.98 in1015.2 mb - 0.00 in0.0 mm 0.00 in0.0 mm
12:20 PM 56.9°F13.8°C 48.7°F9.3°C 74% 8.1 mph NNW13.0 kmh NNW 11.5 mph18.5 kmh 29.98 in1015.2 mb - 0.00 in0.0 mm 0.00 in0.0 mm
12:10 PM 56.9°F13.8°C 48.7°F9.3°C 74% 6.9 mph NNW11.1 kmh NNW 11.5 mph18.5 kmh 29.98 in1015.2 mb - 0.00 in0.0 mm 0.00 in0.0 mm
12:00 PM 56.9°F13.8°C 48.7°F9.3°C 74% 4.6 mph NNW7.4 kmh NNW 8.1 mph13.0 kmh 29.98 in1015.2 mb - 0.00 in0.0 mm 0.00 in0.0 mm
11:50 AM 56.9°F13.8°C 48.7°F9.3°C 74% 8.1 mph NNW13.0 kmh NNW 11.5 mph18.5 kmh 29.98 in1015.2 mb - 0.00 in0.0 mm 0.00 in0.0 mm
11:40 AM 56.9°F13.8°C 48.7°F9.3°C 74% 8.1 mph NNW13.0 kmh NNW 11.5 mph18.5 kmh 29.98 in1015.2 mb - 0.00 in0.0 mm 0.00 in0.0 mm
11:30 AM 56.9°F13.8°C 48.7°F9.3°C 74% 8.1 mph NNW13.0 kmh NNW 13.8 mph22.2 kmh 29.98 in1015.2 mb - 0.00 in0.0 mm 0.00 in0.0 mm
11:20 AM 56.9°F13.8°C 48.7°F9.3°C 74% 5.8 mph NNW9.3 kmh NNW 11.5 mph18.5 kmh 29.98 in1015.2 mb - 0.00 in0.0 mm 0.00 in0.0 mm
11:10 AM 56.9°F13.8°C 48.7°F9.3°C 74% 4.6 mph NNW7.4 kmh NNW 9.2 mph14.8 kmh 29.98 in1015.2 mb - 0.00 in0.0 mm 0.00 in0.0 mm
11:00 AM 56.9°F13.8°C 48.7°F9.3°C 74% 8.1 mph NNW13.0 kmh NNW 11.5 mph18.5 kmh 29.98 in1015.2 mb - 0.00 in0.0 mm 0.00 in0.0 mm
10:50 AM 56.9°F13.8°C 48.7°F9.3°C 74% 8.1 mph NNW13.0 kmh NNW 12.7 mph20.4 kmh 29.98 in1015.2 mb - 0.00 in0.0 mm 0.00 in0.0 mm
10:40 AM 56.9°F13.8°C 48.7°F9.3°C 74% 4.6 mph NNW7.4 kmh NNW 8.1 mph13.0 kmh 29.98 in1015.2 mb - 0.00 in0.0 mm 0.00 in0.0 mm
10:30 AM 56.9°F13.8°C 48.7°F9.3°C 74% 6.9 mph NNW11.1 kmh NNW 9.2 mph14.8 kmh 29.98 in1015.2 mb - 0.00 in0.0 mm 0.00 in0.0 mm
10:20 AM 56.9°F13.8°C 48.7°F9.3°C 74% 5.8 mph NNW9.3 kmh NNW 11.5 mph18.5 kmh 29.98 in1015.2 mb - 0.00 in0.0 mm 0.00 in0.0 mm
10:10 AM 56.9°F13.8°C 48.7°F9.3°C 74% 5.8 mph NNW9.3 kmh NNW 11.5 mph18.5 kmh 29.98 in1015.2 mb - 0.00 in0.0 mm 0.00 in0.0 mm
10:00 AM 56.9°F13.8°C 48.7°F9.3°C 74% 8.1 mph NNW13.0 kmh NNW 12.7 mph20.4 kmh 29.98 in1015.2 mb - 0.00 in0.0 mm 0.00 in0.0 mm
09:50 AM 56.9°F13.8°C 48.7°F9.3°C 74% 5.8 mph NNW9.3 kmh NNW 9.2 mph14.8 kmh 29.98 in1015.2 mb - 0.00 in0.0 mm 0.00 in0.0 mm
09:40 AM 56.9°F13.8°C 48.7°F9.3°C 74% 6.9 mph NNW11.1 kmh NNW 11.5 mph18.5 kmh 29.98 in1015.2 mb - 0.00 in0.0 mm 0.00 in0.0 mm
09:30 AM 56.9°F13.8°C 48.7°F9.3°C 74% 6.9 mph NNW11.1 kmh NNW 11.5 mph18.5 kmh 29.98 in1015.2 mb - 0.00 in0.0 mm 0.00 in0.0 mm
09:20 AM 56.9°F13.8°C 48.7°F9.3°C 74% 9.2 mph NNW14.8 kmh NNW 12.7 mph20.4 kmh 29.98 in1015.2 mb - 0.00 in0.0 mm 0.00 in0.0 mm
09:10 AM 56.9°F13.8°C 48.7°F9.3°C 74% 8.1 mph NNW13.0 kmh NNW 11.5 mph18.5 kmh 29.98 in1015.2 mb - 0.00 in0.0 mm 0.00 in0.0 mm
09:00 AM 56.9°F13.8°C 48.7°F9.3°C 74% 5.8 mph NNW9.3 kmh NNW 9.2 mph14.8 kmh 29.98 in1015.2 mb - 0.00 in0.0 mm 0.00 in0.0 mm
08:50 AM 56.9°F13.8°C 48.7°F9.3°C 74% 5.8 mph NNW9.3 kmh NNW 11.5 mph18.5 kmh 29.98 in1015.2 mb - 0.00 in0.0 mm 0.00 in0.0 mm
08:40 AM 56.9°F13.8°C 48.7°F9.3°C 74% 4.6 mph NNW7.4 kmh NNW 11.5 mph18.5 kmh 29.98 in1015.2 mb - 0.00 in0.0 mm 0.00 in0.0 mm
08:30 AM 56.9°F13.8°C 48.7°F9.3°C 74% 6.9 mph NNW11.1 kmh NNW 11.5 mph18.5 kmh 29.98 in1015.2 mb - 0.00 in0.0 mm 0.00 in0.0 mm
08:20 AM 56.9°F13.8°C 48.7°F9.3°C 74% 4.6 mph NNW7.4 kmh NNW 8.1 mph13.0 kmh 29.98 in1015.2 mb - 0.00 in0.0 mm 0.00 in0.0 mm
08:10 AM 56.9°F13.8°C 48.7°F9.3°C 74% 3.5 mph NNW5.6 kmh NNW 8.1 mph13.0 kmh 29.98 in1015.2 mb - 0.00 in0.0 mm 0.00 in0.0 mm
08:00 AM 56.9°F13.8°C 48.7°F9.3°C 74% 4.6 mph NNW7.4 kmh NNW 8.1 mph13.0 kmh 29.98 in1015.2 mb - 0.00 in0.0 mm 0.00 in0.0 mm
07:50 AM 56.9°F13.8°C 48.7°F9.3°C 74% 3.5 mph NNW5.6 kmh NNW 6.9 mph11.1 kmh 29.98 in1015.2 mb - 0.00 in0.0 mm 0.00 in0.0 mm
07:40 AM 56.9°F13.8°C 48.7°F9.3°C 74% 2.3 mph NNW3.7 kmh NNW 5.8 mph9.3 kmh 29.98 in1015.2 mb - 0.00 in0.0 mm 0.00 in0.0 mm
07:30 AM 56.9°F13.8°C 48.7°F9.3°C 74% 3.5 mph NNW5.6 kmh NNW 8.1 mph13.0 kmh 29.98 in1015.2 mb - 0.00 in0.0 mm 0.00 in0.0 mm
07:20 AM 56.9°F13.8°C 48.7°F9.3°C 74% 2.3 mph NNW3.7 kmh NNW 5.8 mph9.3 kmh 29.98 in1015.2 mb - 0.00 in0.0 mm 0.00 in0.0 mm
07:10 AM 56.9°F13.8°C 48.7°F9.3°C 74% 2.3 mph NNW3.7 kmh NNW 5.8 mph9.3 kmh 29.98 in1015.2 mb - 0.00 in0.0 mm 0.00 in0.0 mm
07:00 AM 56.9°F13.8°C 48.7°F9.3°C 74% 3.5 mph NNW5.6 kmh NNW 4.6 mph7.4 kmh 29.98 in1015.2 mb - 0.00 in0.0 mm 0.00 in0.0 mm
06:50 AM 56.9°F13.8°C 48.7°F9.3°C 74% 1.2 mph NNW1.9 kmh NNW 5.8 mph9.3 kmh 29.98 in1015.2 mb - 0.00 in0.0 mm 0.00 in0.0 mm
06:40 AM 56.9°F13.8°C 48.7°F9.3°C 74% Calm Calm -- 29.98 in1015.2 mb - 0.00 in0.0 mm 0.00 in0.0 mm
06:30 AM 56.9°F13.8°C 48.7°F9.3°C 74% Calm Calm -- 29.98 in1015.2 mb - 0.00 in0.0 mm 0.00 in0.0 mm
06:20 AM 56.9°F13.8°C 48.7°F9.3°C 74% Calm Calm 2.3 mph3.7 kmh 29.98 in1015.2 mb - 0.00 in0.0 mm 0.00 in0.0 mm
06:10 AM 56.9°F13.8°C 48.7°F9.3°C 74% Calm Calm 2.3 mph3.7 kmh 29.98 in1015.2 mb - 0.00 in0.0 mm 0.00 in0.0 mm
06:00 AM 56.9°F13.8°C 48.7°F9.3°C 74% Calm Calm 1.2 mph1.9 kmh 29.98 in1015.2 mb - 0.00 in0.0 mm 0.00 in0.0 mm
05:50 AM 56.9°F13.8°C 48.7°F9.3°C 74% Calm Calm 2.3 mph3.7 kmh 29.98 in1015.2 mb - 0.00 in0.0 mm 0.00 in0.0 mm
05:40 AM 56.9°F13.8°C 48.7°F9.3°C 74% 2.3 mph NNW3.7 kmh NNW 4.6 mph7.4 kmh 29.98 in1015.2 mb - 0.00 in0.0 mm 0.00 in0.0 mm
05:30 AM 56.9°F13.8°C 48.7°F9.3°C 74% Calm Calm 2.3 mph3.7 kmh 29.98 in1015.2 mb - 0.00 in0.0 mm 0.00 in0.0 mm
05:20 AM 56.9°F13.8°C 48.7°F9.3°C 74% Calm Calm -- 29.98 in1015.2 mb - 0.00 in0.0 mm 0.00 in0.0 mm
05:10 AM 56.9°F13.8°C 48.7°F9.3°C 74% 1.2 mph NNW1.9 kmh NNW 2.3 mph3.7 kmh 29.98 in1015.2 mb - 0.00 in0.0 mm 0.00 in0.0 mm
05:00 AM 56.9°F13.8°C 48.7°F9.3°C 74% 1.2 mph NNW1.9 kmh NNW 4.6 mph7.4 kmh 29.98 in1015.2 mb - 0.00 in0.0 mm 0.00 in0.0 mm
04:50 AM 56.9°F13.8°C 48.7°F9.3°C 74% 2.3 mph NNW3.7 kmh NNW 5.8 mph9.3 kmh 29.98 in1015.2 mb - 0.00 in0.0 mm 0.00 in0.0 mm
04:40 AM 56.9°F13.8°C 48.7°F9.3°C 74% 1.2 mph NNW1.9 kmh NNW 2.3 mph3.7 kmh 29.98 in1015.2 mb - 0.00 in0.0 mm 0.00 in0.0 mm
04:30 AM 56.9°F13.8°C 48.7°F9.3°C 74% 2.3 mph NNW3.7 kmh NNW 5.8 mph9.3 kmh 29.98 in1015.2 mb - 0.00 in0.0 mm 0.00 in0.0 mm
04:20 AM 56.9°F13.8°C 48.7°F9.3°C 74% 1.2 mph NNW1.9 kmh NNW 5.8 mph9.3 kmh 29.98 in1015.2 mb - 0.00 in0.0 mm 0.00 in0.0 mm
04:10 AM 56.9°F13.8°C 48.7°F9.3°C 74% 1.2 mph NNW1.9 kmh NNW 4.6 mph7.4 kmh 29.98 in1015.2 mb - 0.00 in0.0 mm 0.00 in0.0 mm
04:00 AM 56.9°F13.8°C 48.7°F9.3°C 74% 2.3 mph NNW3.7 kmh NNW 4.6 mph7.4 kmh 29.98 in1015.2 mb - 0.00 in0.0 mm 0.00 in0.0 mm
03:50 AM 56.9°F13.8°C 48.7°F9.3°C 74% 2.3 mph NNW3.7 kmh NNW 5.8 mph9.3 kmh 29.98 in1015.2 mb - 0.00 in0.0 mm 0.00 in0.0 mm
03:40 AM 56.9°F13.8°C 48.7°F9.3°C 74% 3.5 mph NNW5.6 kmh NNW 6.9 mph11.1 kmh 29.98 in1015.2 mb - 0.00 in0.0 mm 0.00 in0.0 mm
03:30 AM 56.9°F13.8°C 48.7°F9.3°C 74% 2.3 mph NNW3.7 kmh NNW 5.8 mph9.3 kmh 29.98 in1015.2 mb - 0.00 in0.0 mm 0.00 in0.0 mm
03:20 AM 56.9°F13.8°C 48.7°F9.3°C 74% 1.2 mph NNW1.9 kmh NNW 2.3 mph3.7 kmh 29.98 in1015.2 mb - 0.00 in0.0 mm 0.00 in0.0 mm
03:10 AM 56.9°F13.8°C 48.7°F9.3°C 74% Calm Calm 2.3 mph3.7 kmh 29.98 in1015.2 mb - 0.00 in0.0 mm 0.00 in0.0 mm
03:00 AM 56.9°F13.8°C 48.7°F9.3°C 74% Calm Calm 2.3 mph3.7 kmh 29.98 in1015.2 mb - 0.00 in0.0 mm 0.00 in0.0 mm
02:50 AM 56.9°F13.8°C 48.7°F9.3°C 74% 2.3 mph NNW3.7 kmh NNW 5.8 mph9.3 kmh 29.98 in1015.2 mb - 0.00 in0.0 mm 0.00 in0.0 mm
02:40 AM 56.9°F13.8°C 48.7°F9.3°C 74% 3.5 mph NNW5.6 kmh NNW 6.9 mph11.1 kmh 29.98 in1015.2 mb - 0.00 in0.0 mm 0.00 in0.0 mm
02:30 AM 56.9°F13.8°C 48.7°F9.3°C 74% 3.5 mph NNW5.6 kmh NNW 5.8 mph9.3 kmh 29.98 in1015.2 mb - 0.00 in0.0 mm 0.00 in0.0 mm
02:20 AM 56.9°F13.8°C 48.7°F9.3°C 74% 4.6 mph NNW7.4 kmh NNW 6.9 mph11.1 kmh 29.98 in1015.2 mb - 0.00 in0.0 mm 0.00 in0.0 mm
02:10 AM 56.9°F13.8°C 48.7°F9.3°C 74% 3.5 mph NNW5.6 kmh NNW 5.8 mph9.3 kmh 29.98 in1015.2 mb - 0.00 in0.0 mm 0.00 in0.0 mm
02:00 AM 56.9°F13.8°C 48.7°F9.3°C 74% 3.5 mph NNW5.6 kmh NNW 5.8 mph9.3 kmh 29.98 in1015.2 mb - 0.00 in0.0 mm 0.00 in0.0 mm
01:50 AM 56.9°F13.8°C 48.7°F9.3°C 74% 4.6 mph NNW7.4 kmh NNW 6.9 mph11.1 kmh 29.98 in1015.2 mb - 0.00 in0.0 mm 0.00 in0.0 mm
01:40 AM 56.9°F13.8°C 48.7°F9.3°C 74% 3.5 mph NNW5.6 kmh NNW 5.8 mph9.3 kmh 29.98 in1015.2 mb - 0.00 in0.0 mm 0.00 in0.0 mm
01:30 AM 56.9°F13.8°C 48.7°F9.3°C 74% 2.3 mph NNW3.7 kmh NNW 5.8 mph9.3 kmh 29.98 in1015.2 mb - 0.00 in0.0 mm 0.00 in0.0 mm
01:20 AM 56.9°F13.8°C 48.7°F9.3°C 74% 3.5 mph NNW5.6 kmh NNW 6.9 mph11.1 kmh 29.98 in1015.2 mb - 0.00 in0.0 mm 0.00 in0.0 mm
01:10 AM 56.9°F13.8°C 48.7°F9.3°C 74% 5.8 mph NNW9.3 kmh NNW 8.1 mph13.0 kmh 29.98 in1015.2 mb - 0.00 in0.0 mm 0.00 in0.0 mm
01:00 AM 56.9°F13.8°C 48.7°F9.3°C 74% 3.5 mph NNW5.6 kmh NNW 8.1 mph13.0 kmh 29.98 in1015.2 mb - 0.00 in0.0 mm 0.00 in0.0 mm
12:50 AM 56.9°F13.8°C 48.7°F9.3°C 74% 3.5 mph NNW5.6 kmh NNW 6.9 mph11.1 kmh 29.98 in1015.2 mb - 0.00 in0.0 mm 0.00 in0.0 mm
12:40 AM 56.9°F13.8°C 48.7°F9.3°C 74% 3.5 mph NNW5.6 kmh NNW 5.8 mph9.3 kmh 29.98 in1015.2 mb - 0.00 in0.0 mm 0.00 in0.0 mm
12:30 AM 56.9°F13.8°C 48.7°F9.3°C 74% 4.6 mph NNW7.4 kmh NNW 5.8 mph9.3 kmh 29.98 in1015.2 mb - 0.00 in0.0 mm 0.00 in0.0 mm
12:20 AM 56.9°F13.8°C 48.7°F9.3°C 74% 5.8 mph NNW9.3 kmh NNW 6.9 mph11.1 kmh 29.98 in1015.2 mb - 0.00 in0.0 mm 0.00 in0.0 mm
12:10 AM 56.9°F13.8°C 48.7°F9.3°C 74% 4.6 mph NNW7.4 kmh NNW 8.1 mph13.0 kmh 29.98 in1015.2 mb - 0.00 in0.0 mm 0.00 in0.0 mm
12:00 AM 56.9°F13.8°C 48.7°F9.3°C 74% 3.5 mph NNW5.6 kmh NNW 8.1 mph13.0 kmh 29.98 in1015.2 mb - 0.00 in0.0 mm 0.00 in0.0 mm